createdAt,value
2022-12-09T00:02:25.766Z,11.65
2022-12-09T00:04:53.199Z,12.98
2022-12-09T00:07:20.229Z,13.75
2022-12-09T00:09:47.450Z,12.75
2022-12-09T00:12:14.663Z,13.20
2022-12-09T00:14:41.909Z,12.93
2022-12-09T00:17:08.872Z,12.32
2022-12-09T00:19:35.880Z,13.23
2022-12-09T00:22:03.167Z,12.70
2022-12-09T00:24:30.219Z,11.70
2022-12-09T00:26:57.597Z,11.45
2022-12-09T00:29:24.543Z,12.10
2022-12-09T00:31:51.860Z,11.77
2022-12-09T00:34:19.376Z,12.20
2022-12-09T00:36:46.612Z,11.40
2022-12-09T00:39:13.882Z,11.60
2022-12-09T00:41:40.792Z,12.10
2022-12-09T00:44:08.330Z,11.68
2022-12-09T00:46:35.396Z,11.30
2022-12-09T00:49:04.528Z,11.13
2022-12-09T00:51:31.639Z,10.77
2022-12-09T00:53:58.624Z,10.75
2022-12-09T00:56:28.501Z,10.50
2022-12-09T00:58:57.412Z,10.73
2022-12-09T01:01:24.679Z,9.82
2022-12-09T01:03:52.228Z,10.23
2022-12-09T01:06:22.082Z,9.68
2022-12-09T01:08:49.511Z,9.25
2022-12-09T01:11:19.413Z,10.80
2022-12-09T01:13:47.120Z,9.50
2022-12-09T01:16:24.857Z,10.38
2022-12-09T01:18:54.098Z,10.15
2022-12-09T01:21:21.294Z,9.82
2022-12-09T01:23:48.172Z,9.50
2022-12-09T01:26:15.561Z,9.38
2022-12-09T01:28:42.764Z,9.18
2022-12-09T01:31:12.646Z,9.10
2022-12-09T01:33:40.841Z,8.88
2022-12-09T01:36:10.735Z,8.95
2022-12-09T01:38:38.094Z,8.88
2022-12-09T01:41:05.374Z,8.55
2022-12-09T01:43:32.988Z,8.35
2022-12-09T01:46:00.012Z,6.22
2022-12-09T01:48:37.586Z,9.38
2022-12-09T01:51:19.641Z,8.80
2022-12-09T01:53:50.164Z,8.68
2022-12-09T01:56:22.431Z,8.13
2022-12-09T01:58:50.309Z,6.03
2022-12-09T02:01:18.122Z,4.60
2022-12-09T02:03:45.777Z,6.88
2022-12-09T02:06:13.567Z,8.50
2022-12-09T02:08:41.063Z,7.63
2022-12-09T02:11:14.274Z,7.53
2022-12-09T02:13:41.359Z,7.50
2022-12-09T02:16:14.249Z,8.43
2022-12-09T02:18:54.734Z,7.97
2022-12-09T02:21:36.952Z,7.15
2022-12-09T02:24:09.160Z,7.22
2022-12-09T02:27:14.656Z,7.03
2022-12-09T02:29:47.228Z,7.43
2022-12-09T02:32:56.293Z,7.10
2022-12-09T02:35:32.185Z,6.95
2022-12-09T02:38:12.398Z,7.00
2022-12-09T02:40:57.378Z,7.25
2022-12-09T02:43:29.073Z,6.63
2022-12-09T02:45:58.560Z,6.57
2022-12-09T02:48:33.260Z,6.75
2022-12-09T02:51:03.868Z,6.10
2022-12-09T02:53:32.279Z,7.15
2022-12-09T02:55:59.949Z,6.13
2022-12-09T02:58:27.275Z,7.00
2022-12-09T03:00:56.719Z,6.50
2022-12-09T03:03:25.227Z,6.65
2022-12-09T03:06:07.206Z,5.97
2022-12-09T03:08:49.064Z,7.13
2022-12-09T03:11:18.752Z,6.78
2022-12-09T03:13:57.179Z,6.45
2022-12-09T03:16:35.742Z,6.65
2022-12-09T03:19:05.566Z,5.72
2022-12-09T03:21:38.280Z,6.85
2022-12-09T03:24:08.608Z,5.93
2022-12-09T03:26:38.912Z,7.25
2022-12-09T03:29:17.898Z,7.03
2022-12-09T03:31:47.218Z,6.88
2022-12-09T03:34:17.646Z,6.20
2022-12-09T03:36:48.135Z,6.72
2022-12-09T03:39:19.111Z,6.60
2022-12-09T03:41:52.309Z,6.93
2022-12-09T03:44:47.607Z,5.65
2022-12-09T03:47:14.787Z,6.40
2022-12-09T03:49:42.553Z,7.63
2022-12-09T03:52:28.860Z,6.70
2022-12-09T03:55:01.086Z,8.10
2022-12-09T03:57:29.201Z,7.37
2022-12-09T04:00:02.177Z,7.40
2022-12-09T04:02:30.238Z,8.30
2022-12-09T04:04:57.765Z,8.07
2022-12-09T04:07:24.949Z,7.85
2022-12-09T04:09:52.405Z,7.47
2022-12-09T04:12:19.657Z,8.57
2022-12-09T04:14:47.090Z,7.95
2022-12-09T04:17:14.639Z,8.00
2022-12-09T04:19:41.976Z,8.27
2022-12-09T04:22:09.576Z,7.95
2022-12-09T04:24:36.901Z,8.00
2022-12-09T04:27:04.218Z,7.90
2022-12-09T04:29:31.519Z,8.45
2022-12-09T04:31:58.896Z,7.45
2022-12-09T04:34:25.908Z,7.85
2022-12-09T04:36:52.860Z,8.57
2022-12-09T04:39:19.831Z,9.77
2022-12-09T04:41:47.088Z,8.52
2022-12-09T04:44:14.300Z,8.10
2022-12-09T04:46:42.004Z,8.55
2022-12-09T04:49:09.040Z,7.80
2022-12-09T04:51:39.962Z,6.70
2022-12-09T04:54:11.156Z,8.05
2022-12-09T04:56:38.251Z,8.43
2022-12-09T04:59:06.320Z,8.13
2022-12-09T05:01:33.909Z,7.28
2022-12-09T05:04:01.671Z,7.88
2022-12-09T05:06:29.709Z,8.55
2022-12-09T05:08:57.952Z,8.40
2022-12-09T05:11:25.846Z,8.20
2022-12-09T05:13:56.654Z,7.63
2022-12-09T05:16:24.102Z,8.35
2022-12-09T05:18:51.569Z,8.50
2022-12-09T05:21:20.807Z,8.27
2022-12-09T05:23:49.507Z,8.40
2022-12-09T05:26:19.574Z,8.68
2022-12-09T05:28:47.525Z,8.95
2022-12-09T05:31:18.051Z,8.48
2022-12-09T05:33:46.875Z,9.43
2022-12-09T05:36:16.283Z,8.98
2022-12-09T05:38:43.799Z,9.45
2022-12-09T05:41:11.396Z,8.88
2022-12-09T05:43:38.957Z,9.77
2022-12-09T05:46:07.045Z,9.63
2022-12-09T05:48:34.708Z,10.25
2022-12-09T05:51:08.029Z,9.38
2022-12-09T05:53:35.338Z,9.90
2022-12-09T05:56:03.114Z,9.98
2022-12-09T05:58:30.296Z,10.30
2022-12-09T06:01:04.928Z,9.70
2022-12-09T06:03:32.247Z,10.15
2022-12-09T06:05:59.875Z,9.68
2022-12-09T06:08:28.984Z,9.98
2022-12-09T06:10:56.045Z,9.68
2022-12-09T06:13:23.536Z,10.77
2022-12-09T06:15:50.535Z,10.40
2022-12-09T06:18:18.001Z,10.30
2022-12-09T06:20:45.032Z,9.90
2022-12-09T06:23:12.029Z,9.63
2022-12-09T06:25:45.220Z,10.82
2022-12-09T06:28:13.076Z,10.27
2022-12-09T06:30:40.124Z,9.93
2022-12-09T06:33:23.126Z,9.75
2022-12-09T06:35:54.954Z,9.90
2022-12-09T06:38:22.022Z,10.32
2022-12-09T06:40:49.221Z,10.27
2022-12-09T06:43:16.352Z,10.27
2022-12-09T06:45:43.476Z,9.90
2022-12-09T06:48:10.871Z,9.82
2022-12-09T06:50:38.621Z,9.65
2022-12-09T06:53:05.609Z,9.32
2022-12-09T06:55:32.504Z,11.23
2022-12-09T06:57:59.977Z,9.68
2022-12-09T07:00:27.045Z,10.63
2022-12-09T07:02:54.775Z,9.07
2022-12-09T07:05:23.206Z,9.15
2022-12-09T07:07:52.177Z,9.75
2022-12-09T07:10:20.687Z,10.63
2022-12-09T07:12:47.740Z,10.43
2022-12-09T07:15:15.252Z,10.40
2022-12-09T07:17:42.492Z,9.25
2022-12-09T07:20:10.318Z,10.93
2022-12-09T07:22:37.827Z,9.95
2022-12-09T07:25:05.954Z,10.65
2022-12-09T07:27:33.328Z,10.63
2022-12-09T07:30:00.494Z,10.50
2022-12-09T07:32:28.142Z,11.20
2022-12-09T07:34:55.683Z,11.05
2022-12-09T07:37:22.631Z,9.90
2022-12-09T07:39:49.655Z,9.10
2022-12-09T07:42:16.820Z,9.90
2022-12-09T07:44:43.788Z,9.82
2022-12-09T07:47:10.950Z,10.18
2022-12-09T07:49:38.250Z,10.50
2022-12-09T07:52:05.691Z,10.20
2022-12-09T07:54:32.717Z,10.55
2022-12-09T07:56:59.784Z,10.27
2022-12-09T07:59:27.131Z,9.45
2022-12-09T08:01:54.264Z,10.68
2022-12-09T08:04:21.784Z,10.48
2022-12-09T08:06:49.277Z,10.82
2022-12-09T08:09:16.683Z,9.95
2022-12-09T08:11:44.324Z,10.95
2022-12-09T08:14:13.046Z,10.93
2022-12-09T08:16:42.008Z,10.65
2022-12-09T08:19:10.200Z,82.07
2022-12-09T08:21:37.748Z,12.85
2022-12-09T08:24:07.785Z,10.82
2022-12-09T08:26:37.518Z,11.13
2022-12-09T08:29:08.166Z,10.77
2022-12-09T08:31:40.590Z,10.38
2022-12-09T08:34:08.894Z,10.05
2022-12-09T08:36:37.138Z,11.10
2022-12-09T08:39:05.324Z,11.30
2022-12-09T08:41:39.082Z,11.60
2022-12-09T08:44:12.161Z,11.30
2022-12-09T08:46:43.597Z,11.20
2022-12-09T08:49:11.350Z,11.40
2022-12-09T08:51:39.671Z,12.18
2022-12-09T08:54:07.052Z,12.30
2022-12-09T08:56:34.467Z,11.88
2022-12-09T08:59:02.181Z,12.25
2022-12-09T09:01:35.914Z,11.48
2022-12-09T09:04:06.453Z,12.52
2022-12-09T09:06:34.217Z,12.73
2022-12-09T09:09:01.953Z,12.23
2022-12-09T09:11:29.794Z,11.52
2022-12-09T09:13:57.035Z,12.95
2022-12-09T09:16:25.855Z,76.00
2022-12-09T09:18:53.588Z,14.65
2022-12-09T09:21:24.175Z,12.55
2022-12-09T09:23:51.936Z,11.70
2022-12-09T09:26:22.056Z,12.10
2022-12-09T09:28:50.295Z,12.27
2022-12-09T09:31:20.402Z,11.63
2022-12-09T09:33:54.912Z,10.20
2022-12-09T09:36:24.907Z,9.80
2022-12-09T09:38:54.140Z,10.63
2022-12-09T09:41:38.020Z,11.10
2022-12-09T09:44:32.423Z,10.07
2022-12-09T09:47:01.994Z,10.18
2022-12-09T09:49:53.394Z,9.95
2022-12-09T09:52:23.494Z,10.25
2022-12-09T09:54:51.971Z,16.00
2022-12-09T09:57:24.906Z,9.48
2022-12-09T10:00:08.396Z,10.07
2022-12-09T10:03:15.314Z,10.13
2022-12-09T10:05:58.680Z,10.13
2022-12-09T10:08:32.916Z,10.48
2022-12-09T10:11:11.912Z,10.23
2022-12-09T10:13:48.405Z,10.88
2022-12-09T10:16:23.998Z,10.00
2022-12-09T10:19:19.031Z,11.20
2022-12-09T10:21:48.877Z,10.38
2022-12-09T10:24:39.203Z,10.75
2022-12-09T10:27:16.596Z,11.13
2022-12-09T10:30:18.569Z,10.52
2022-12-09T10:32:46.649Z,11.32
2022-12-09T10:35:25.762Z,12.13
2022-12-09T10:37:55.632Z,12.40
2022-12-09T10:40:30.306Z,11.63
2022-12-09T10:43:18.342Z,13.50
2022-12-09T10:48:49.421Z,13.23
2022-12-09T10:51:22.078Z,12.95
2022-12-09T10:54:21.779Z,13.63
2022-12-09T10:57:07.282Z,12.23
2022-12-09T10:59:35.389Z,12.30
2022-12-09T11:02:10.159Z,13.20
2022-12-09T11:04:42.223Z,12.98
2022-12-09T11:07:18.278Z,15.38
2022-12-09T11:09:56.480Z,12.85
2022-12-09T11:12:38.570Z,17.38
2022-12-09T11:15:32.494Z,14.32
2022-12-09T11:18:16.736Z,13.85
2022-12-09T11:20:56.072Z,11.30
2022-12-09T11:23:23.120Z,13.30
2022-12-09T11:26:00.665Z,13.27
2022-12-09T11:28:36.851Z,15.85
2022-12-09T11:33:57.242Z,12.30
2022-12-09T11:36:36.850Z,26.42
2022-12-09T11:39:16.308Z,12.88
2022-12-09T11:42:12.956Z,13.10
2022-12-09T11:45:16.217Z,12.90
2022-12-09T11:50:37.448Z,11.05
2022-12-09T11:53:13.271Z,11.60
2022-12-09T11:56:05.568Z,11.65
2022-12-09T11:58:49.499Z,13.20
2022-12-09T12:01:27.666Z,11.88
2022-12-09T12:04:01.552Z,13.65
2022-12-09T12:06:48.315Z,13.68
2022-12-09T12:09:21.525Z,13.90
2022-12-09T12:11:52.916Z,13.88
2022-12-09T12:14:25.766Z,12.52
2022-12-09T12:17:17.268Z,12.40
2022-12-09T12:19:49.356Z,10.93
2022-12-09T12:22:22.263Z,11.02
2022-12-09T12:25:17.690Z,10.43
2022-12-09T12:28:07.991Z,11.70
2022-12-09T12:30:56.010Z,12.25
2022-12-09T12:36:28.711Z,11.10
2022-12-09T12:39:20.923Z,11.32
2022-12-09T12:41:57.656Z,11.48
2022-12-09T12:45:14.037Z,11.60
2022-12-09T12:47:47.027Z,10.57
2022-12-09T12:50:43.912Z,10.98
2022-12-09T12:53:20.981Z,14.20
2022-12-09T12:55:50.178Z,11.23
2022-12-09T12:58:41.263Z,10.55
2022-12-09T13:01:31.328Z,11.95
2022-12-09T13:04:13.977Z,11.52
2022-12-09T13:06:49.443Z,11.05
2022-12-09T13:09:51.169Z,11.13
2022-12-09T13:12:55.528Z,11.70
2022-12-09T13:15:39.003Z,10.80
2022-12-09T13:18:24.791Z,10.52
2022-12-09T13:20:59.868Z,10.20
2022-12-09T13:23:40.820Z,11.23
2022-12-09T13:26:35.393Z,11.27
2022-12-09T13:29:02.229Z,11.30
2022-12-09T13:31:31.188Z,13.35
2022-12-09T13:34:22.668Z,12.70
2022-12-09T13:36:49.780Z,12.63
2022-12-09T13:39:42.688Z,14.48
2022-12-09T13:42:47.431Z,13.82
2022-12-09T13:45:25.429Z,15.27
2022-12-09T13:47:53.431Z,17.15
2022-12-09T13:50:43.519Z,16.50
2022-12-09T13:53:19.401Z,17.30
2022-12-09T13:55:54.221Z,18.20
2022-12-09T13:58:53.471Z,17.35
2022-12-09T14:01:43.819Z,19.27
2022-12-09T14:04:16.022Z,19.17
2022-12-09T14:06:45.763Z,18.47
2022-12-09T14:09:37.183Z,18.13
2022-12-09T14:12:11.736Z,16.02
2022-12-09T14:14:48.672Z,16.50
2022-12-09T14:17:41.256Z,16.40
2022-12-09T14:20:29.968Z,18.35
2022-12-09T14:23:02.515Z,21.55
2022-12-09T14:25:29.369Z,17.15
2022-12-09T14:28:25.411Z,16.85
2022-12-09T14:30:59.757Z,16.70
2022-12-09T14:33:34.320Z,16.98
2022-12-09T14:36:27.719Z,16.75
2022-12-09T14:39:24.957Z,16.30
2022-12-09T14:42:01.469Z,18.52
2022-12-09T14:44:43.906Z,19.95
2022-12-09T14:47:27.009Z,23.97
2022-12-09T14:50:03.750Z,24.80
2022-12-09T14:52:32.974Z,26.00
2022-12-09T14:55:06.697Z,26.55
2022-12-09T14:57:41.634Z,25.23
2022-12-09T15:00:35.736Z,24.25
2022-12-09T15:06:00.525Z,27.20
2022-12-09T15:08:28.453Z,28.00
2022-12-09T15:10:55.442Z,28.55
2022-12-09T15:13:24.470Z,29.70
2022-12-09T15:15:52.443Z,28.83
2022-12-09T15:18:23.016Z,32.53
2022-12-09T15:20:57.811Z,32.45
2022-12-09T15:23:30.639Z,32.33
2022-12-09T15:26:04.333Z,36.45
2022-12-09T15:28:33.715Z,37.10
2022-12-09T15:31:15.805Z,37.88
2022-12-09T15:33:45.750Z,35.28
2022-12-09T15:36:21.159Z,35.53
2022-12-09T15:39:07.979Z,36.20
2022-12-09T15:42:02.801Z,34.85
2022-12-09T15:44:56.156Z,36.25
2022-12-09T15:47:57.450Z,39.00
2022-12-09T15:50:28.816Z,36.15
2022-12-09T15:53:06.256Z,37.10
2022-12-09T15:55:50.560Z,35.75
2022-12-09T15:58:24.023Z,35.60
2022-12-09T16:00:53.877Z,34.33
2022-12-09T16:03:30.269Z,30.27
2022-12-09T16:06:01.174Z,31.33
2022-12-09T16:08:35.218Z,32.05
2022-12-09T16:11:02.570Z,31.63
2022-12-09T16:13:29.897Z,31.08
2022-12-09T16:15:59.067Z,30.98
2022-12-09T16:18:28.116Z,31.67
2022-12-09T16:21:14.897Z,34.70
2022-12-09T16:23:44.089Z,35.83
2022-12-09T16:26:30.818Z,40.08
2022-12-09T16:29:01.485Z,44.30
2022-12-09T16:31:29.072Z,46.33
2022-12-09T16:33:56.565Z,45.17
2022-12-09T16:36:31.742Z,46.35
2022-12-09T16:39:07.272Z,45.08
2022-12-09T16:41:52.219Z,46.38
2022-12-09T16:44:21.684Z,46.45
2022-12-09T16:46:48.736Z,46.55
2022-12-09T16:49:15.705Z,45.08
2022-12-09T16:51:42.642Z,43.35
2022-12-09T16:54:20.283Z,45.47
2022-12-09T16:56:48.598Z,46.85
2022-12-09T16:59:15.488Z,52.30
2022-12-09T17:01:42.925Z,56.25
2022-12-09T17:04:17.401Z,57.78
2022-12-09T17:06:44.456Z,56.10
2022-12-09T17:09:14.549Z,56.13
2022-12-09T17:11:46.994Z,53.83
2022-12-09T17:14:16.162Z,51.40
2022-12-09T17:16:43.081Z,46.13
2022-12-09T17:19:09.965Z,47.10
2022-12-09T17:21:36.866Z,42.35
2022-12-09T17:24:04.004Z,40.10
2022-12-09T17:26:30.931Z,35.42
2022-12-09T17:29:01.550Z,36.92
2022-12-09T17:31:29.203Z,40.15
2022-12-09T17:33:57.228Z,41.65
2022-12-09T17:36:24.210Z,45.08
2022-12-09T17:38:51.088Z,46.22
2022-12-09T17:41:23.445Z,46.22
2022-12-09T17:43:50.493Z,46.97
2022-12-09T17:46:17.670Z,43.65
2022-12-09T17:48:44.818Z,46.83
2022-12-09T17:51:18.004Z,44.00
2022-12-09T17:53:45.765Z,43.70
2022-12-09T17:56:18.880Z,42.78
2022-12-09T18:01:15.925Z,39.83
2022-12-09T18:04:01.611Z,40.83
2022-12-09T18:06:34.811Z,41.10
2022-12-09T18:09:04.132Z,39.15
2022-12-09T18:11:31.403Z,41.60
2022-12-09T18:13:58.630Z,40.63
2022-12-09T18:16:26.192Z,41.20
2022-12-09T18:18:53.256Z,42.50
2022-12-09T18:21:20.266Z,43.70
2022-12-09T18:23:48.428Z,42.17
2022-12-09T18:26:17.883Z,40.92
2022-12-09T18:28:45.351Z,45.33
2022-12-09T18:31:19.252Z,45.05
2022-12-09T18:33:46.601Z,44.10
2022-12-09T18:36:15.960Z,50.15
2022-12-09T18:38:43.515Z,51.40
2022-12-09T18:41:16.224Z,50.33
2022-12-09T18:43:44.804Z,49.38
2022-12-09T18:46:21.370Z,53.28
2022-12-09T18:49:17.646Z,52.65
2022-12-09T18:51:45.850Z,49.92
2022-12-09T18:54:18.206Z,52.65
2022-12-09T18:56:45.535Z,52.72
2022-12-09T18:59:12.444Z,53.03
2022-12-09T19:01:45.375Z,51.28
2022-12-09T19:04:24.615Z,51.65
2022-12-09T19:06:54.017Z,53.00
2022-12-09T19:09:23.450Z,49.90
2022-12-09T19:11:52.282Z,48.83
2022-12-09T19:14:21.343Z,47.40
2022-12-09T19:16:49.443Z,46.97
2022-12-09T19:19:22.516Z,47.20
2022-12-09T19:24:18.938Z,46.95
2022-12-09T19:26:46.488Z,48.78
2022-12-09T19:29:14.283Z,49.33
2022-12-09T19:31:44.264Z,51.90
2022-12-09T19:34:13.346Z,49.92
2022-12-09T19:36:40.360Z,50.92
2022-12-09T19:39:08.637Z,50.20
2022-12-09T19:41:36.965Z,51.58
2022-12-09T19:44:04.969Z,48.78
2022-12-09T19:46:33.141Z,46.33
2022-12-09T19:49:00.498Z,48.35
2022-12-09T19:51:28.077Z,46.58
2022-12-09T19:53:56.864Z,44.67
2022-12-09T19:56:24.508Z,44.95
2022-12-09T19:58:52.380Z,41.42
2022-12-09T20:01:28.088Z,43.05
2022-12-09T20:04:13.563Z,42.33
2022-12-09T20:06:48.157Z,40.83
2022-12-09T20:09:19.328Z,41.83
2022-12-09T20:11:46.205Z,183.23
2022-12-09T20:14:14.081Z,43.88
2022-12-09T20:16:41.403Z,44.33
2022-12-09T20:19:08.751Z,45.30
2022-12-09T20:21:37.755Z,46.75
2022-12-09T20:24:05.957Z,46.88
2022-12-09T20:26:34.592Z,49.25
2022-12-09T20:29:04.399Z,48.47
2022-12-09T20:31:33.401Z,49.03
2022-12-09T20:34:04.331Z,48.65
2022-12-09T20:36:35.253Z,48.03
2022-12-09T20:39:05.770Z,50.05
2022-12-09T20:41:34.858Z,46.75
2022-12-09T20:44:01.782Z,47.88
2022-12-09T20:46:31.031Z,46.40
2022-12-09T20:48:59.336Z,43.90
2022-12-09T20:51:30.611Z,45.20
2022-12-09T20:53:58.190Z,42.63
2022-12-09T20:56:26.342Z,43.30
2022-12-09T20:58:54.058Z,39.70
2022-12-09T21:01:23.918Z,38.03
2022-12-09T21:03:52.643Z,39.60
2022-12-09T21:06:22.534Z,39.33
2022-12-09T21:08:49.704Z,39.45
2022-12-09T21:11:19.873Z,40.25
2022-12-09T21:13:49.666Z,40.63
2022-12-09T21:16:20.512Z,39.22
2022-12-09T21:18:49.360Z,37.80
2022-12-09T21:21:17.748Z,40.22
2022-12-09T21:23:44.926Z,39.42
2022-12-09T21:26:15.620Z,40.10
2022-12-09T21:28:43.770Z,38.00
2022-12-09T21:31:16.562Z,39.67
2022-12-09T21:33:44.860Z,39.90
2022-12-09T21:36:17.701Z,40.22
2022-12-09T21:38:44.789Z,40.63
2022-12-09T21:41:15.191Z,40.03
2022-12-09T21:43:43.069Z,39.58
2022-12-09T21:46:17.818Z,38.17
2022-12-09T21:48:50.563Z,81.80
2022-12-09T21:51:19.884Z,43.60
2022-12-09T21:53:47.392Z,38.55
2022-12-09T21:56:25.884Z,38.35
2022-12-09T21:58:55.259Z,37.95
2022-12-09T22:01:26.199Z,38.13
2022-12-09T22:03:53.657Z,34.63
2022-12-09T22:06:21.222Z,35.03
2022-12-09T22:08:48.232Z,33.80
2022-12-09T22:11:18.176Z,31.90
2022-12-09T22:13:45.442Z,30.67
2022-12-09T22:16:18.673Z,31.77
2022-12-09T22:18:46.250Z,29.75
2022-12-09T22:21:26.296Z,27.95
2022-12-09T22:23:55.144Z,28.30
2022-12-09T22:26:22.935Z,31.67
2022-12-09T22:28:50.425Z,28.90
2022-12-09T22:31:22.893Z,28.45
2022-12-09T22:33:51.536Z,28.63
2022-12-09T22:36:19.990Z,26.60
2022-12-09T22:38:47.721Z,26.00
2022-12-09T22:41:21.332Z,26.33
2022-12-09T22:43:49.139Z,25.25
2022-12-09T22:46:20.129Z,24.67
2022-12-09T22:48:47.823Z,22.55
2022-12-09T22:51:20.862Z,46.67
2022-12-09T22:56:18.830Z,22.75
2022-12-09T22:58:46.243Z,21.80
2022-12-09T23:01:26.866Z,21.75
2022-12-09T23:03:58.013Z,20.95
2022-12-09T23:06:26.816Z,20.67
2022-12-09T23:08:54.053Z,21.02
2022-12-09T23:11:23.316Z,20.65
2022-12-09T23:13:50.996Z,20.40
2022-12-09T23:16:20.819Z,21.48
2022-12-09T23:18:48.204Z,19.90
2022-12-09T23:21:24.260Z,19.73
2022-12-09T23:23:56.785Z,18.95
2022-12-09T23:26:28.152Z,19.77
2022-12-09T23:28:58.131Z,17.65
2022-12-09T23:31:27.881Z,18.42
2022-12-09T23:33:55.421Z,17.92
2022-12-09T23:36:25.674Z,18.20
2022-12-09T23:38:53.563Z,16.85
2022-12-09T23:41:22.435Z,17.20
2022-12-09T23:43:50.128Z,16.52
2022-12-09T23:46:19.763Z,16.15
2022-12-09T23:48:48.216Z,15.50
2022-12-09T23:51:27.898Z,15.25
2022-12-09T23:53:57.523Z,15.45
2022-12-09T23:56:26.300Z,15.85
2022-12-09T23:58:56.285Z,16.77
